Terminal Aerodrome Forecast
Issued by NWS

Home | Current Version | Previous Version | Text Only | Print | Product List | Glossary On
Versions: 1 2 3 4 5 6 7 8 9 10 11 12 13 14 15 16 17 18 19 20 21 22 23 24
193
FTUS44 KBMX 201126
TAFTOI
TAF
KTOI 201126Z 2012/2112 00000KT 2SM BR SCT050
     FM201400 VRB02KT P6SM BKN015
     FM201800 11008KT P6SM VCTS SCT050CB PROB30 2021/2101 P6SM TSRA
      BKN050CB
     FM210600 07004KT P6SM OVC007
     FM210900 06005KT P6SM OVC004=

USA.gov is the U.S. government's official web portal to all federal, state and local government web resources and services.